Time;durP1;ratioP1;P1;durP2;ratioP2;P2;SDS_P1;SDS_P2;PMS_P1;PMS_P2;Temp;Humidity;BMP_temperature;BMP_pressure;BME280_temperature;BME280_humidity;BME280_pressure;Samples;Min_cycle;Max_cycle;Signal;HPM_P1;HPM_P2
2023/02/24 00:02:51;;;;;;;0.00;0.00;;;;;;;9.91;60.44;101557.44;7253693;19;2004512;-53
2023/02/24 00:05:17;;;;;;;0.00;0.00;;;;;;;9.94;60.52;101570.47;7342813;19;20014;-56
2023/02/24 00:07:43;;;;;;;0.00;0.00;;;;;;;9.73;60.37;101536.66;7342528;19;20038;-54
2023/02/24 00:10:10;;;;;;;0.10;0.10;;;;;;;9.92;61.01;101563.50;7351950;19;20741;-55
2023/02/24 00:12:36;;;;;;;0.00;0.00;;;;;;;9.91;60.86;101570.47;7350115;19;20063;-54
2023/02/24 00:15:01;;;;;;;0.00;0.00;;;;;;;9.90;61.32;101581.78;7352005;19;20010;-51
2023/02/24 00:17:29;;;;;;;0.00;0.00;;;;;;;9.90;61.21;101584.41;7344491;19;20371;-55
2023/02/24 00:19:54;;;;;;;;;;;;;;;9.92;58.57;101582.66;7357843;19;20014;-56
2023/02/24 00:22:20;;;;;;;0.00;0.00;;;;;;;9.87;61.03;101571.38;7356670;19;20717;-54
2023/02/24 00:24:45;;;;;;;0.00;0.00;;;;;;;9.89;61.07;101574.84;7355525;19;20018;-55
2023/02/24 00:27:11;;;;;;;0.00;0.00;;;;;;;9.87;61.17;101566.16;7354330;19;20014;-53
2023/02/24 00:29:36;;;;;;;0.00;0.00;;;;;;;9.86;61.38;101567.03;7352814;19;20006;-54
2023/02/24 00:32:05;;;;;;;0.00;0.00;;;;;;;9.81;61.16;101560.97;7357131;19;20023;-56
2023/02/24 00:34:34;;;;;;;0.00;0.00;;;;;;;9.84;61.40;101566.19;7358450;19;20019;-55
2023/02/24 00:37:00;;;;;;;0.00;0.00;;;;;;;9.64;61.63;101526.31;7355047;19;20010;-55
2023/02/24 00:39:32;;;;;;;0.00;0.00;;;;;;;9.82;61.25;101560.09;7355389;19;20082;-55
2023/02/24 00:42:03;;;;;;;0.00;0.00;;;;;;;9.79;61.46;101560.13;7355179;19;20023;-55
2023/02/24 00:44:31;;;;;;;0.00;0.00;;;;;;;9.78;61.57;101553.16;7354568;19;20014;-55
2023/02/24 00:46:57;;;;;;;0.10;0.10;;;;;;;9.78;61.49;101560.97;7351574;19;20018;-55
2023/02/24 00:49:23;;;;;;;0.00;0.00;;;;;;;9.77;61.41;101554.03;7354514;19;20015;-55
2023/02/24 00:51:48;;;;;;;0.00;0.00;;;;;;;9.76;61.20;101547.09;7349309;19;20014;-53
2023/02/24 00:54:15;;;;;;;0.00;0.00;;;;;;;9.59;61.43;101511.56;7354399;19;20493;-55
2023/02/24 00:56:43;;;;;;;0.00;0.00;;;;;;;9.74;61.75;101538.41;7336444;19;20019;-56
2023/02/24 00:59:10;;;;;;;0.00;0.00;;;;;;;9.73;61.34;101531.44;7355431;19;22871;-54
2023/02/24 01:01:35;;;;;;;0.00;0.00;;;;;;;9.61;61.49;101511.53;7356630;19;20691;-56
2023/02/24 01:04:09;;;;;;;0.00;0.00;;;;;;;9.69;61.91;101514.97;7357867;19;21139;-55
2023/02/24 01:06:43;;;;;;;0.00;0.00;;;;;;;9.70;60.87;101521.91;7354241;19;20021;-55
2023/02/24 01:09:12;;;;;;;0.00;0.00;;;;;;;9.70;60.87;101515.84;7358604;19;20018;-55
2023/02/24 01:14:25;;;;;;;0.00;0.00;;;;;;;9.59;61.73;101506.34;7358119;19;20027;-56
2023/02/24 01:16:51;;;;;;;0.00;0.00;;;;;;;9.65;61.68;101512.38;7351369;19;20010;-55
2023/02/24 01:19:36;;;;;;;0.00;0.00;;;;;;;9.54;61.84;101494.22;7358591;19;20014;-55
2023/02/24 01:22:05;;;;;;;0.00;0.00;;;;;;;9.62;61.44;101508.91;7357738;19;20014;-53
2023/02/24 01:24:34;;;;;;;0.00;0.00;;;;;;;9.60;61.78;101500.25;7357754;19;20014;-55
2023/02/24 01:26:59;;;;;;;0.00;0.00;;;;;;;9.60;61.70;101491.56;7354989;19;20029;-55
2023/02/24 01:29:25;;;;;;;0.00;0.00;;;;;;;9.49;61.07;101470.75;7354207;19;20018;-55
2023/02/24 01:31:51;;;;;;;0.10;0.10;;;;;;;9.56;61.68;101482.88;7356241;19;20014;-56
2023/02/24 01:34:17;;;;;;;0.00;0.00;;;;;;;9.55;61.54;101482.91;7357779;19;20035;-54
2023/02/24 01:36:43;;;;;;;0.10;0.10;;;;;;;9.56;61.80;101482.00;7350101;19;20018;-55
2023/02/24 01:39:11;;;;;;;0.05;0.05;;;;;;;9.55;62.27;101481.16;7357385;19;20014;-56
2023/02/24 01:41:40;;;;;;;0.10;0.10;;;;;;;9.44;62.09;101467.31;7357266;19;20043;-55
2023/02/24 01:44:15;;;;;;;0.00;0.00;;;;;;;9.55;61.08;101469.84;7355700;19;20018;-54
2023/02/24 01:46:43;;;;;;;0.10;0.10;;;;;;;9.55;62.00;101486.38;7357501;19;20053;-55
2023/02/24 01:49:14;;;;;;;0.00;0.00;;;;;;;9.55;61.61;101482.91;7349636;19;20092;-55
2023/02/24 01:51:46;;;;;;;0.00;0.00;;;;;;;9.53;62.13;101475.09;7354899;19;20054;-56
2023/02/24 01:54:14;;;;;;;0.00;0.00;;;;;;;9.49;62.36;101475.97;7354655;19;20021;-55
2023/02/24 01:56:41;;;;;;;0.00;0.00;;;;;;;9.39;62.72;101453.44;7355935;19;20022;-55
2023/02/24 01:59:08;;;;;;;0.00;0.00;;;;;;;9.52;62.53;101480.28;7356798;19;20035;-53
2023/02/24 02:01:39;;;;;;;0.00;0.00;;;;;;;9.51;62.51;101484.63;7353432;19;20018;-55
2023/02/24 02:04:19;;;;;;;0.00;0.00;;;;;;;9.52;61.65;101473.31;7353222;19;20455;-55
2023/02/24 02:06:47;;;;;;;0.00;0.00;;;;;;;9.52;62.20;101469.88;7355741;19;20406;-55
2023/02/24 02:09:14;;;;;;;0.00;0.00;;;;;;;9.51;61.98;101457.72;7351872;19;20028;-55
2023/02/24 02:11:47;;;;;;;0.00;0.00;;;;;;;9.49;61.74;101452.50;7355305;19;20017;-54
2023/02/24 02:14:15;;;;;;;0.00;0.00;;;;;;;9.43;62.04;101438.63;7353805;19;20025;-56
2023/02/24 02:16:55;;;;;;;0.00;0.00;;;;;;;9.09;62.29;101384.97;7354643;19;20015;-56
2023/02/24 02:20:06;;;;;;;0.00;0.00;;;;;;;9.36;60.85;101425.63;7354949;19;20620;-55
2023/02/24 02:22:50;;;;;;;0.00;0.00;;;;;;;9.48;62.35;101447.28;7250287;19;2004601;-53
2023/02/24 02:25:43;;;;;;;0.00;0.00;;;;;;;9.47;62.89;101448.16;7354264;19;20018;-56
2023/02/24 02:28:21;;;;;;;0.10;0.10;;;;;;;9.42;61.90;101437.75;7252821;19;2004466;-52
2023/02/24 02:31:05;;;;;;;0.00;0.00;;;;;;;9.45;61.52;101432.53;7351131;19;20025;-55
2023/02/24 02:34:08;;;;;;;0.10;0.10;;;;;;;9.47;61.49;101435.13;7354682;19;20014;-55
2023/02/24 02:36:42;;;;;;;0.03;0.03;;;;;;;9.43;62.12;101431.69;7252310;19;2005000;-54
2023/02/24 02:39:27;;;;;;;0.00;0.00;;;;;;;9.43;61.62;101421.28;7353563;19;22166;-55
2023/02/24 02:41:55;;;;;;;0.00;0.00;;;;;;;9.41;63.15;101423.00;7353233;19;20043;-54
2023/02/24 02:44:31;;;;;;;0.00;0.00;;;;;;;9.41;62.44;101420.41;7355129;19;20027;-55
2023/02/24 02:47:33;;;;;;;0.08;0.08;;;;;;;9.41;62.16;101409.09;7353056;19;20625;-55
2023/02/24 02:50:18;;;;;;;0.10;0.10;;;;;;;9.26;62.56;101389.22;7248028;19;2004370;-55
2023/02/24 02:52:52;;;;;;;0.00;0.00;;;;;;;9.32;63.14;101390.03;7355176;19;20007;-55
2023/02/24 02:55:29;;;;;;;0.03;0.03;;;;;;;9.37;63.49;101403.03;7349421;19;20373;-55
2023/02/24 02:57:57;;;;;;;0.00;0.00;;;;;;;9.29;63.33;101378.78;7343596;19;20021;-55
2023/02/24 03:00:27;;;;;;;;;;;;;;;9.37;60.70;101387.41;7352891;19;20010;-54
2023/02/24 03:03:02;;;;;;;0.05;0.05;;;;;;;9.05;62.46;101338.97;7356544;19;19934;-57
2023/02/24 03:05:33;;;;;;;0.00;0.00;;;;;;;9.33;62.76;101380.50;7358127;19;20031;-55
2023/02/24 03:08:03;;;;;;;0.00;0.00;;;;;;;9.18;62.47;101372.78;7358000;19;20427;-56
2023/02/24 03:10:33;;;;;;;0.00;0.00;;;;;;;9.26;62.80;101389.22;7355874;19;20658;-55
2023/02/24 03:13:02;;;;;;;0.00;0.00;;;;;;;9.20;63.02;101394.47;7356952;19;20014;-54
2023/02/24 03:15:30;;;;;;;0.00;0.00;;;;;;;9.05;63.00;101375.44;7351739;19;20018;-55
2023/02/24 03:18:10;;;;;;;0.10;0.10;;;;;;;9.19;63.13;101392.75;7359864;19;20030;-55
2023/02/24 03:20:47;;;;;;;0.00;0.00;;;;;;;9.15;63.29;101384.06;7358117;19;20006;-54
2023/02/24 03:23:36;;;;;;;0.00;0.00;;;;;;;9.07;63.43;101378.94;7357828;19;20797;-55
2023/02/24 03:26:06;;;;;;;0.00;0.00;;;;;;;9.08;63.43;101380.66;7358194;19;20015;-55
2023/02/24 03:28:38;;;;;;;0.00;0.00;;;;;;;9.08;62.57;101370.22;7357496;19;20019;-55
2023/02/24 03:31:12;;;;;;;0.00;0.00;;;;;;;9.07;63.81;101368.50;7353796;19;20006;-55
2023/02/24 03:33:50;;;;;;;0.00;0.00;;;;;;;9.02;63.24;101362.47;7358316;19;20007;-54
2023/02/24 03:36:16;;;;;;;0.00;0.00;;;;;;;9.03;63.54;101369.38;7352892;19;20006;-54
2023/02/24 03:38:42;;;;;;;0.00;0.00;;;;;;;8.91;63.60;101352.94;7352680;19;20011;-55
2023/02/24 03:41:12;;;;;;;0.00;0.00;;;;;;;8.99;63.59;101366.81;7357731;19;20022;-54
2023/02/24 03:43:43;;;;;;;0.00;0.00;;;;;;;8.99;63.85;101366.81;7357058;19;20627;-55
2023/02/24 03:46:10;;;;;;;0.00;0.00;;;;;;;8.97;63.50;101366.81;7353918;19;20492;-55
2023/02/24 03:48:43;;;;;;;0.00;0.00;;;;;;;8.97;64.19;101364.22;7358819;19;20033;-55
2023/02/24 03:51:15;;;;;;;0.10;0.10;;;;;;;8.84;64.27;101344.31;7356848;19;20018;-55
2023/02/24 03:53:40;;;;;;;0.10;0.10;;;;;;;8.94;63.75;101366.81;7354608;19;20491;-54
2023/02/24 03:56:32;;;;;;;0.00;0.00;;;;;;;8.90;63.47;101365.09;7357447;19;20547;-55
2023/02/24 03:59:03;;;;;;;0.10;0.10;;;;;;;8.93;64.03;101365.09;7257724;19;2004446;-55
2023/02/24 04:01:38;;;;;;;0.00;0.00;;;;;;;8.93;64.39;101362.50;7357977;19;20463;-55
2023/02/24 04:04:15;;;;;;;0.03;0.03;;;;;;;8.94;64.13;101343.38;7353192;19;20007;-55
2023/02/24 04:06:59;;;;;;;0.00;0.00;;;;;;;8.95;64.00;101355.53;7355292;19;20355;-54
2023/02/24 04:10:01;;;;;;;0.00;0.00;;;;;;;8.55;62.80;101275.00;7357792;19;20010;-56
2023/02/24 04:12:53;;;;;;;0.00;0.00;;;;;;;8.95;63.15;101337.28;7255666;19;2004314;-54
2023/02/24 04:15:21;;;;;;;0.00;0.00;;;;;;;8.79;64.17;101314.81;7358789;19;20032;-54
2023/02/24 04:17:53;;;;;;;0.00;0.00;;;;;;;8.93;63.96;101346.88;7356376;19;20018;-54
2023/02/24 04:20:23;;;;;;;0.00;0.00;;;;;;;8.90;64.26;101330.38;7344209;19;20333;-54
2023/02/24 04:22:53;;;;;;;0.05;0.05;;;;;;;8.89;64.30;101337.34;7354390;19;20023;-54
2023/02/24 04:25:23;;;;;;;0.10;0.10;;;;;;;8.77;64.71;101312.25;7355803;19;20010;-56
2023/02/24 04:27:52;;;;;;;0.10;0.10;;;;;;;8.81;64.40;101318.28;7358465;19;20022;-55
2023/02/24 04:30:19;;;;;;;0.00;0.00;;;;;;;8.89;64.46;101319.09;7357762;19;20494;-55
2023/02/24 04:32:45;;;;;;;0.10;0.10;;;;;;;8.93;64.46;101315.63;7358837;19;20017;-55
2023/02/24 04:35:15;;;;;;;0.00;0.00;;;;;;;8.82;64.73;101293.97;7356008;19;22726;-55
2023/02/24 04:37:44;;;;;;;0.05;0.05;;;;;;;8.98;64.08;101308.63;7357698;19;20572;-53
2023/02/24 04:40:12;;;;;;;0.00;0.00;;;;;;;8.98;64.36;101306.03;7358134;19;20017;-56
2023/02/24 04:42:45;;;;;;;;;;;;;;;9.05;62.63;101297.28;7359960;19;20041;-55
2023/02/24 04:45:23;;;;;;;0.00;0.00;;;;;;;9.06;64.08;101293.81;7352791;19;19923;-55
2023/02/24 04:47:55;;;;;;;0.00;0.00;;;;;;;9.04;64.88;101300.78;7358375;19;20028;-55
2023/02/24 04:50:23;;;;;;;0.00;0.00;;;;;;;9.04;64.94;101300.78;7352032;19;20006;-55
2023/02/24 04:52:56;;;;;;;0.03;0.03;;;;;;;9.05;64.74;101305.09;7357260;19;20011;-56
2023/02/24 04:55:25;;;;;;;0.03;0.03;;;;;;;8.91;64.79;101273.06;7356401;19;20018;-53
2023/02/24 04:57:57;;;;;;;0.00;0.00;;;;;;;9.04;64.86;101295.56;7355449;19;20085;-55
2023/02/24 05:00:25;;;;;;;0.00;0.00;;;;;;;9.04;65.28;101295.56;7357342;19;20018;-53
2023/02/24 05:02:53;;;;;;;0.00;0.00;;;;;;;9.05;65.39;101296.41;7357108;19;20047;-56
2023/02/24 05:05:24;;;;;;;0.00;0.00;;;;;;;9.08;65.20;101293.81;7357231;19;20097;-56
2023/02/24 05:07:51;;;;;;;0.10;0.10;;;;;;;9.07;65.68;101290.34;7355893;19;20011;-55
2023/02/24 05:10:17;;;;;;;0.00;0.00;;;;;;;9.12;65.28;101297.25;7356694;19;20019;-53
2023/02/24 05:12:43;;;;;;;0.00;0.00;;;;;;;9.13;64.80;101296.38;7357316;19;20014;-54
2023/02/24 05:15:11;;;;;;;0.00;0.00;;;;;;;9.14;65.19;101290.28;7354683;19;20073;-55
2023/02/24 05:17:37;;;;;;;0.00;0.00;;;;;;;9.15;65.00;101289.41;7361672;19;20016;-56
2023/02/24 05:22:50;;;;;;;0.00;0.00;;;;;;;9.08;65.35;101286.84;7357882;19;20021;-54
2023/02/24 05:25:17;;;;;;;0.00;0.00;;;;;;;9.17;65.29;101311.09;7352008;19;20528;-55
2023/02/24 05:27:42;;;;;;;0.00;0.00;;;;;;;9.18;65.24;101302.44;7357904;19;20495;-53
2023/02/24 05:30:08;;;;;;;0.00;0.00;;;;;;;9.19;65.23;101304.16;7352740;19;20098;-56
2023/02/24 05:32:35;;;;;;;0.00;0.00;;;;;;;9.20;65.72;101300.66;7357407;19;20057;-55
2023/02/24 05:35:00;;;;;;;0.00;0.00;;;;;;;9.19;65.55;101294.59;7356619;19;20006;-55
2023/02/24 05:37:26;;;;;;;0.00;0.00;;;;;;;9.21;65.50;101284.16;7356256;19;21074;-55
2023/02/24 05:39:55;;;;;;;0.00;0.00;;;;;;;9.26;64.74;101295.41;7356043;19;20023;-56
2023/02/24 05:42:20;;;;;;;0.00;0.00;;;;;;;9.24;65.12;101295.41;7353140;19;20014;-55
2023/02/24 05:44:46;;;;;;;0.00;0.00;;;;;;;9.28;65.52;101293.66;7356393;19;20013;-55
2023/02/24 05:47:12;;;;;;;0.00;0.00;;;;;;;9.31;65.54;101301.44;7355772;19;20014;-56
2023/02/24 05:49:38;;;;;;;0.00;0.00;;;;;;;9.31;65.52;101289.28;7357821;19;20006;-56
2023/02/24 05:52:08;;;;;;;0.00;0.00;;;;;;;9.35;65.07;101287.50;7353538;19;20011;-56
2023/02/24 05:54:39;;;;;;;0.00;0.00;;;;;;;9.38;64.89;101294.44;7355887;19;20077;-55
2023/02/24 05:57:07;;;;;;;0.00;0.00;;;;;;;9.38;65.30;101284.91;7353458;19;20010;-55
2023/02/24 05:59:33;;;;;;;0.00;0.00;;;;;;;9.39;64.88;101293.56;7357630;19;20454;-55
2023/02/24 06:02:05;;;;;;;0.00;0.00;;;;;;;9.42;64.83;101302.22;7356071;19;20018;-57
2023/02/24 06:04:38;;;;;;;0.00;0.00;;;;;;;9.41;65.64;101291.81;7354066;19;20360;-55
2023/02/24 06:07:21;;;;;;;0.00;0.00;;;;;;;9.45;64.61;101296.97;7352486;19;20021;-54
2023/02/24 06:09:48;;;;;;;0.00;0.00;;;;;;;9.37;65.82;101288.34;7357269;19;20014;-55
2023/02/24 06:12:15;;;;;;;0.00;0.00;;;;;;;9.42;65.24;101291.78;7355486;19;20466;-54
2023/02/24 06:14:41;;;;;;;0.00;0.00;;;;;;;9.45;65.62;101296.97;7356312;19;20006;-56
2023/02/24 06:17:07;;;;;;;0.00;0.00;;;;;;;9.35;65.21;101274.47;7351646;19;20962;-55
2023/02/24 06:19:33;;;;;;;0.08;0.08;;;;;;;9.39;65.62;101272.72;7355915;19;20356;-55
2023/02/24 06:22:03;;;;;;;0.00;0.00;;;;;;;9.49;65.62;101290.88;7350584;19;20105;-55
2023/02/24 06:24:31;;;;;;;0.00;0.00;;;;;;;9.49;65.73;101284.78;7354705;19;20010;-54
2023/02/24 06:27:01;;;;;;;0.03;0.03;;;;;;;9.47;65.50;101279.56;7352878;19;20449;-55
2023/02/24 06:29:28;;;;;;;0.00;0.00;;;;;;;9.53;65.72;101284.75;7353996;19;20014;-55
2023/02/24 06:31:56;;;;;;;0.00;0.00;;;;;;;9.54;65.10;101291.69;7355997;19;20031;-56
2023/02/24 06:34:23;;;;;;;0.00;0.00;;;;;;;9.54;65.97;101280.41;7352819;19;20011;-55
2023/02/24 06:36:50;;;;;;;0.03;0.03;;;;;;;9.58;65.73;101288.19;7358029;19;20014;-54
2023/02/24 06:39:15;;;;;;;0.03;0.03;;;;;;;9.58;65.86;101285.59;7362159;19;20591;-56
2023/02/24 06:41:41;;;;;;;0.00;0.00;;;;;;;9.58;65.57;101288.19;7362401;19;20015;-55
2023/02/24 06:44:08;;;;;;;0.00;0.00;;;;;;;9.36;65.39;101237.97;7359633;19;20022;-56
2023/02/24 06:46:34;;;;;;;0.00;0.00;;;;;;;9.55;65.41;101269.94;7361155;19;20028;-56
2023/02/24 06:48:59;;;;;;;0.00;0.00;;;;;;;9.64;65.40;101283.78;7356264;19;20074;-56
2023/02/24 06:51:28;;;;;;;0.05;0.05;;;;;;;9.64;65.66;101282.06;7358569;19;20049;-56
2023/02/24 06:53:58;;;;;;;0.00;0.00;;;;;;;9.61;65.70;101267.28;7361909;19;20006;-55
2023/02/24 06:56:24;;;;;;;0.00;0.00;;;;;;;9.26;65.31;101191.16;7358338;19;20021;-54
2023/02/24 06:58:52;;;;;;;0.00;0.00;;;;;;;9.71;65.40;101260.22;7351660;19;20029;-57
2023/02/24 07:01:20;;;;;;;0.00;0.00;;;;;;;9.73;65.28;101258.50;7360934;19;20015;-55
2023/02/24 07:04:02;;;;;;;0.10;0.10;;;;;;;9.73;65.17;101253.28;7358822;19;20006;-54
2023/02/24 07:06:33;;;;;;;0.03;0.03;;;;;;;9.77;64.94;101256.69;7355580;19;20021;-56
2023/02/24 07:09:00;;;;;;;0.10;0.10;;;;;;;9.75;65.55;101248.91;7360444;19;20013;-54
2023/02/24 07:11:27;;;;;;;0.00;0.00;;;;;;;9.76;65.19;101239.31;7359617;19;20759;-54
2023/02/24 07:13:54;;;;;;;0.00;0.00;;;;;;;9.77;64.98;101241.03;7359006;19;20006;-56
2023/02/24 07:16:23;;;;;;;0.10;0.10;;;;;;;9.78;65.73;101247.97;7357638;19;20131;-54
2023/02/24 07:18:55;;;;;;;0.00;0.00;;;;;;;9.79;65.37;101244.53;7358336;19;20010;-55
2023/02/24 07:21:22;;;;;;;0.00;0.00;;;;;;;9.77;65.68;101246.25;7359687;19;20010;-55
2023/02/24 07:23:48;;;;;;;0.00;0.00;;;;;;;9.76;65.75;101244.53;7358273;19;20644;-55
2023/02/24 07:26:21;;;;;;;0.00;0.00;;;;;;;9.77;65.66;101241.03;7358766;19;20684;-55
2023/02/24 07:28:47;;;;;;;0.00;0.00;;;;;;;9.76;66.05;101244.53;7356553;19;20086;-55
2023/02/24 07:31:43;;;;;;;0.00;0.00;;;;;;;9.81;64.71;101256.66;7300886;19;20039;-56
2023/02/24 07:34:13;;;;;;;0.00;0.00;;;;;;;9.77;65.82;101260.16;7321197;19;20033;-56
2023/02/24 07:36:47;;;;;;;0.00;0.00;;;;;;;9.74;65.68;101251.53;7360602;19;20343;-56
2023/02/24 07:39:14;;;;;;;0.00;0.00;;;;;;;9.73;66.25;101249.78;7351276;19;20052;-55
2023/02/24 07:41:45;;;;;;;0.00;0.00;;;;;;;9.79;65.99;101260.16;7351331;19;20030;-56
2023/02/24 07:44:12;;;;;;;0.00;0.00;;;;;;;9.79;66.02;101250.59;7357281;19;20030;-56
2023/02/24 07:46:39;;;;;;;0.03;0.03;;;;;;;9.83;65.54;101248.81;7360109;19;20007;-56
2023/02/24 07:49:08;;;;;;;0.00;0.00;;;;;;;9.82;65.52;101244.47;7354951;19;20043;-56
2023/02/24 07:51:34;;;;;;;0.00;0.00;;;;;;;9.87;65.85;101243.53;7359240;19;20018;-56
2023/02/24 07:54:01;;;;;;;0.03;0.03;;;;;;;9.73;65.50;101228.91;7358207;19;20015;-56
2023/02/24 07:56:29;;;;;;;0.10;0.10;;;;;;;9.90;65.65;101253.09;7359601;19;20106;-55
2023/02/24 07:59:08;;;;;;;0.05;0.05;;;;;;;9.90;65.47;101252.22;7361537;19;20045;-55
2023/02/24 08:01:39;;;;;;;0.00;0.00;;;;;;;9.92;65.98;101246.09;7360187;19;20015;-54
2023/02/24 08:04:11;;;;;;;0.00;0.00;;;;;;;9.95;65.47;101240.84;7357619;19;20019;-56
2023/02/24 08:06:42;;;;;;;0.00;0.00;;;;;;;9.96;65.82;101242.56;7358624;19;20014;-54
2023/02/24 08:09:19;;;;;;;0.00;0.00;;;;;;;10.01;65.06;101245.13;7360686;19;20027;-56
2023/02/24 08:11:53;;;;;;;0.00;0.00;;;;;;;9.99;65.22;101247.78;7352999;19;20081;-55
2023/02/24 08:14:22;;;;;;;0.03;0.03;;;;;;;10.02;65.57;101254.69;7357815;19;20021;-56
2023/02/24 08:16:58;;;;;;;0.00;0.00;;;;;;;9.87;66.33;101233.09;7355957;19;20022;-55
2023/02/24 08:19:25;;;;;;;0.00;0.00;;;;;;;10.01;66.02;101253.81;7359312;19;20003;-55
2023/02/24 08:21:52;;;;;;;0.00;0.00;;;;;;;9.99;66.09;101247.78;7356829;19;20019;-54
2023/02/24 08:24:22;;;;;;;0.10;0.10;;;;;;;10.10;65.58;101264.16;7357702;19;20003;-56
2023/02/24 08:27:04;;;;;;;0.00;0.00;;;;;;;10.07;65.95;101261.56;7357320;19;20026;-54
2023/02/24 08:29:56;;;;;;;0.00;0.00;;;;;;;10.17;65.89;101272.78;7355731;19;20570;-55
2023/02/24 08:32:25;;;;;;;0.00;0.00;;;;;;;10.19;65.70;101267.53;7254410;19;2004329;-55
2023/02/24 08:34:55;;;;;;;0.00;0.00;;;;;;;10.19;65.99;101259.69;7358713;19;21013;-54
2023/02/24 08:37:23;;;;;;;0.05;0.05;;;;;;;10.17;66.10;101251.88;7354860;19;20031;-56
2023/02/24 08:39:52;;;;;;;0.00;0.00;;;;;;;10.24;66.35;101257.91;7355526;19;20026;-55
2023/02/24 08:42:19;;;;;;;0.00;0.00;;;;;;;10.27;65.94;101263.97;7354065;19;20866;-55
2023/02/24 08:44:45;;;;;;;0.00;0.00;;;;;;;10.31;65.67;101254.38;7357009;19;20090;-55
2023/02/24 08:47:12;;;;;;;0.00;0.00;;;;;;;10.29;66.17;101251.78;7356287;19;20098;-55
2023/02/24 08:49:39;;;;;;;0.00;0.00;;;;;;;10.37;65.70;101259.50;7353698;19;20014;-56
2023/02/24 08:52:06;;;;;;;0.00;0.00;;;;;;;10.42;65.89;101249.88;7353015;19;20680;-56
2023/02/24 08:54:32;;;;;;;0.00;0.00;;;;;;;10.45;65.91;101247.22;7357714;19;20018;-55
2023/02/24 08:57:06;;;;;;;0.00;0.00;;;;;;;10.48;65.74;101247.16;7355411;19;20010;-56
2023/02/24 08:59:39;;;;;;;0.00;0.00;;;;;;;10.51;66.20;101236.69;7351576;19;20688;-56
2023/02/24 09:02:23;;;;;;;0.00;0.00;;;;;;;10.61;65.53;101237.44;7352749;19;20006;-56
2023/02/24 09:04:59;;;;;;;0.00;0.00;;;;;;;10.64;65.89;101240.88;7342417;19;20006;-56
2023/02/24 09:07:28;;;;;;;0.10;0.10;;;;;;;10.69;65.52;101232.09;7354250;19;20047;-56
2023/02/24 09:09:55;;;;;;;0.00;0.00;;;;;;;10.70;65.42;101221.63;7333665;19;20010;-55
2023/02/24 09:12:27;;;;;;;0.00;0.00;;;;;;;10.67;65.77;101210.34;7351032;19;20477;-56
2023/02/24 09:14:56;;;;;;;0.00;0.00;;;;;;;10.73;65.47;101220.72;7349790;19;20025;-56
2023/02/24 09:18:13;;;;;;;0.00;0.00;;;;;;;10.81;65.71;101218.84;7347234;19;20786;-56
2023/02/24 09:23:06;;;;;;;0.00;0.00;;;;;;;10.88;65.22;101215.25;7352008;19;20050;-55
2023/02/24 09:25:39;;;;;;;0.00;0.00;;;;;;;10.91;65.52;101213.47;7351624;19;20021;-55
2023/02/24 09:28:19;;;;;;;0.00;0.00;;;;;;;10.61;65.03;101159.09;7354135;19;20747;-56
2023/02/24 09:30:54;;;;;;;0.00;0.00;;;;;;;10.98;65.16;101208.13;7352520;19;20074;-55
2023/02/24 09:33:40;;;;;;;0.00;0.00;;;;;;;11.02;64.88;101220.25;7338509;19;20023;-55
2023/02/24 09:36:11;;;;;;;0.03;0.03;;;;;;;11.02;65.29;101217.66;7346626;19;20523;-54
2023/02/24 09:44:38;;;;;;;0.00;0.00;;;;;;;11.01;65.30;101211.56;7247733;19;2004274;-54
2023/02/24 09:47:14;;;;;;;0.00;0.00;;;;;;;11.08;65.16;101218.41;7351320;19;20580;-56
2023/02/24 09:49:54;;;;;;;0.10;0.10;;;;;;;11.08;65.03;101214.94;7350166;19;20077;-56
2023/02/24 09:52:38;;;;;;;0.00;0.00;;;;;;;11.06;65.33;101207.13;7351584;19;20105;-54
2023/02/24 09:55:25;;;;;;;0.00;0.00;;;;;;;11.09;65.20;101214.91;7350414;19;20018;-56
2023/02/24 10:01:20;;;;;;;0.00;0.00;;;;;;;11.05;64.25;101197.56;7250713;19;2004483;-53
2023/02/24 10:04:21;;;;;;;0.00;0.00;;;;;;;11.14;64.60;101206.97;7249786;19;2004209;-56
2023/02/24 10:06:54;;;;;;;0.00;0.00;;;;;;;11.08;65.30;101213.19;7253587;19;2004071;-54
2023/02/24 10:09:33;;;;;;;0.00;0.00;;;;;;;10.97;64.85;101193.34;7354564;19;20014;-55
2023/02/24 10:12:11;;;;;;;0.00;0.00;;;;;;;10.97;64.87;101194.19;7353996;19;20006;-55
2023/02/24 10:15:30;;;;;;;0.00;0.00;;;;;;;11.13;64.80;101227.03;7355717;19;20086;-55
2023/02/24 10:18:11;;;;;;;0.00;0.00;;;;;;;10.99;65.14;101208.09;7150779;19;2005266;-56
2023/02/24 10:20:43;;;;;;;0.00;0.00;;;;;;;11.06;65.08;101219.34;7355281;19;20002;-54
2023/02/24 10:23:28;;;;;;;0.00;0.00;;;;;;;11.15;64.83;101220.03;7353944;19;20399;-56
2023/02/24 10:26:03;;;;;;;0.00;0.00;;;;;;;11.09;65.20;101190.50;7354513;19;20093;-55
2023/02/24 10:28:44;;;;;;;0.00;0.00;;;;;;;10.94;64.68;101157.66;7356190;19;20062;-56
2023/02/24 10:31:24;;;;;;;0.00;0.00;;;;;;;11.15;65.32;101188.69;7352928;19;20003;-55
2023/02/24 10:34:11;;;;;;;0.00;0.00;;;;;;;11.26;64.65;101205.94;7354322;19;20010;-55
2023/02/24 10:36:38;;;;;;;0.00;0.00;;;;;;;10.75;65.24;101119.69;7353301;19;20093;-55
2023/02/24 10:39:19;;;;;;;0.00;0.00;;;;;;;11.31;65.29;101196.25;7353713;19;20030;-56
2023/02/24 10:41:56;;;;;;;0.10;0.10;;;;;;;11.35;64.95;101200.50;7354167;19;20784;-55
2023/02/24 10:44:34;;;;;;;0.00;0.00;;;;;;;11.39;65.23;101207.41;7354164;19;20010;-53
2023/02/24 10:47:11;;;;;;;0.00;0.00;;;;;;;11.42;65.05;101207.38;7354617;19;21092;-56
2023/02/24 10:49:55;;;;;;;0.10;0.10;;;;;;;11.41;65.33;101221.34;7354175;19;20035;-56
2023/02/24 10:55:27;;;;;;;0.00;0.00;;;;;;;11.49;64.97;101211.59;7354956;19;20024;-56
2023/02/24 10:58:05;;;;;;;0.03;0.03;;;;;;;11.39;64.65;101196.97;7352877;19;20078;-55
2023/02/24 11:00:59;;;;;;;0.10;0.10;;;;;;;11.54;64.67;101220.22;7351181;19;20147;-55
2023/02/24 11:03:40;;;;;;;0.00;0.00;;;;;;;11.54;65.53;101222.81;7249941;19;2004500;-55
2023/02/24 11:06:40;;;;;;;0.00;0.00;;;;;;;11.60;65.04;101222.72;7351731;19;20011;-56
2023/02/24 11:17:26;;;;;;;0.10;0.10;;;;;;;11.81;65.35;101204.88;7250598;19;2004403;-55
2023/02/24 11:20:09;;;;;;;0.00;0.00;;;;;;;11.90;65.49;101207.34;7351121;19;20010;-56
2023/02/24 11:22:38;;;;;;;0.00;0.00;;;;;;;11.70;65.62;101156.25;7352193;19;20010;-55
2023/02/24 11:25:39;;;;;;;0.00;0.00;;;;;;;12.17;65.21;101200.72;7360147;19;20014;-55
2023/02/24 11:28:32;;;;;;;0.10;0.10;;;;;;;12.34;65.59;101208.19;7258208;19;2004106;-56
2023/02/24 11:31:04;;;;;;;0.00;0.00;;;;;;;12.46;65.23;101215.75;7255811;19;2004384;-55
2023/02/24 11:33:51;;;;;;;0.08;0.08;;;;;;;12.70;65.65;101216.97;7360255;19;20006;-56
2023/02/24 11:36:19;;;;;;;0.00;0.00;;;;;;;12.97;65.70;101199.72;7357823;19;20039;-56
2023/02/24 11:39:01;;;;;;;0.08;0.08;;;;;;;13.30;65.42;101194.56;7359891;19;20018;-56
2023/02/24 11:41:31;;;;;;;0.00;0.00;;;;;;;13.63;64.11;101183.16;7358512;19;20491;-56
2023/02/24 11:44:22;;;;;;;0.00;0.00;;;;;;;13.95;64.20;101178.78;7357940;19;20895;-56
2023/02/24 11:46:56;;;;;;;0.00;0.00;;;;;;;14.01;62.79;101179.44;7359353;19;20013;-56
2023/02/24 11:49:40;;;;;;;0.10;0.10;;;;;;;14.24;62.68;101201.53;7358093;19;20043;-56
2023/02/24 11:52:26;;;;;;;0.00;0.00;;;;;;;14.31;62.04;101204.84;7357750;19;20014;-56
2023/02/24 11:54:55;;;;;;;0.10;0.10;;;;;;;14.41;61.83;101214.19;7355971;19;20011;-56
2023/02/24 11:57:39;;;;;;;0.10;0.10;;;;;;;14.53;61.73;101203.31;7359228;19;20783;-56
2023/02/24 12:00:12;;;;;;;0.10;0.10;;;;;;;14.63;62.15;101201.25;7346454;19;20233;-55
2023/02/24 12:02:50;;;;;;;0.10;0.10;;;;;;;14.76;61.27;101195.56;7355017;19;20036;-56
2023/02/24 12:05:20;;;;;;;0.00;0.00;;;;;;;14.92;61.20;101189.81;7353327;19;20014;-56
2023/02/24 12:08:09;;;;;;;0.10;0.10;;;;;;;15.11;61.08;101201.47;7358553;19;20035;-56
2023/02/24 12:10:40;;;;;;;0.08;0.08;;;;;;;15.16;59.99;101196.91;7357673;19;20482;-54
2023/02/24 12:13:17;;;;;;;0.00;0.00;;;;;;;15.18;59.14;101192.44;7358852;19;20403;-55
2023/02/24 12:15:58;;;;;;;0.05;0.05;;;;;;;15.29;60.13;101190.28;7358186;19;20408;-55
2023/02/24 12:18:32;;;;;;;0.10;0.10;;;;;;;15.28;59.15;101167.53;7359512;19;20023;-55
2023/02/24 12:21:05;;;;;;;0.10;0.10;;;;;;;15.28;58.54;101167.53;7358188;19;20344;-56
2023/02/24 12:23:31;;;;;;;0.08;0.08;;;;;;;15.23;58.33;101174.72;7356582;19;20002;-54
2023/02/24 12:26:22;;;;;;;0.10;0.10;;;;;;;15.23;59.25;101163.34;7355566;19;20034;-57
2023/02/24 12:29:14;;;;;;;0.10;0.10;;;;;;;15.16;58.78;101167.09;7354928;19;20048;-55